sensor_id;sensor_type;location;lat;lon;timestamp;temperature;humidity
11304;DHT22;5707;49.588;12.148;2023-08-06T00:02:12;13.30;99.90
11304;DHT22;5707;49.588;12.148;2023-08-06T00:04:38;13.30;99.90
11304;DHT22;5707;49.588;12.148;2023-08-06T00:07:04;13.30;99.90
11304;DHT22;5707;49.588;12.148;2023-08-06T00:09:30;13.20;99.90
11304;DHT22;5707;49.588;12.148;2023-08-06T00:11:55;13.20;99.90
11304;DHT22;5707;49.588;12.148;2023-08-06T00:14:21;13.20;99.90
11304;DHT22;5707;49.588;12.148;2023-08-06T00:16:46;13.20;99.90
11304;DHT22;5707;49.588;12.148;2023-08-06T00:19:12;13.20;99.90
11304;DHT22;5707;49.588;12.148;2023-08-06T00:21:37;13.20;99.90
11304;DHT22;5707;49.588;12.148;2023-08-06T00:24:03;13.20;99.90
11304;DHT22;5707;49.588;12.148;2023-08-06T00:26:29;13.20;99.90
11304;DHT22;5707;49.588;12.148;2023-08-06T00:28:54;13.30;99.90
11304;DHT22;5707;49.588;12.148;2023-08-06T00:31:20;13.30;99.90
11304;DHT22;5707;49.588;12.148;2023-08-06T00:33:45;13.30;99.90
11304;DHT22;5707;49.588;12.148;2023-08-06T00:36:11;13.30;99.90
11304;DHT22;5707;49.588;12.148;2023-08-06T00:38:36;13.30;99.90
11304;DHT22;5707;49.588;12.148;2023-08-06T00:41:02;13.40;99.90
11304;DHT22;5707;49.588;12.148;2023-08-06T00:43:28;13.40;99.90
11304;DHT22;5707;49.588;12.148;2023-08-06T00:45:53;13.40;99.90
11304;DHT22;5707;49.588;12.148;2023-08-06T00:48:19;13.50;99.90
11304;DHT22;5707;49.588;12.148;2023-08-06T00:50:45;13.50;99.90
11304;DHT22;5707;49.588;12.148;2023-08-06T00:53:11;13.50;99.90
11304;DHT22;5707;49.588;12.148;2023-08-06T00:55:37;13.50;99.90
11304;DHT22;5707;49.588;12.148;2023-08-06T00:58:03;13.40;99.90
11304;DHT22;5707;49.588;12.148;2023-08-06T01:00:29;13.40;99.90
11304;DHT22;5707;49.588;12.148;2023-08-06T01:02:55;13.50;99.90
11304;DHT22;5707;49.588;12.148;2023-08-06T01:05:22;13.50;99.90
11304;DHT22;5707;49.588;12.148;2023-08-06T01:08:27;13.60;99.90
11304;DHT22;5707;49.588;12.148;2023-08-06T01:11:08;13.70;99.90
11304;DHT22;5707;49.588;12.148;2023-08-06T01:16:15;13.70;99.90
11304;DHT22;5707;49.588;12.148;2023-08-06T01:18:41;13.80;99.90
11304;DHT22;5707;49.588;12.148;2023-08-06T01:21:08;13.80;99.90
11304;DHT22;5707;49.588;12.148;2023-08-06T01:23:34;13.90;99.90
11304;DHT22;5707;49.588;12.148;2023-08-06T01:31:22;13.90;99.90
11304;DHT22;5707;49.588;12.148;2023-08-06T01:33:50;13.90;99.90
11304;DHT22;5707;49.588;12.148;2023-08-06T01:36:17;13.90;99.90
11304;DHT22;5707;49.588;12.148;2023-08-06T01:38:43;13.90;99.90
11304;DHT22;5707;49.588;12.148;2023-08-06T01:41:09;13.90;99.90
11304;DHT22;5707;49.588;12.148;2023-08-06T01:43:35;13.90;99.90
11304;DHT22;5707;49.588;12.148;2023-08-06T01:46:00;13.90;99.90
11304;DHT22;5707;49.588;12.148;2023-08-06T01:48:26;13.90;99.90
11304;DHT22;5707;49.588;12.148;2023-08-06T01:50:51;13.80;99.90
11304;DHT22;5707;49.588;12.148;2023-08-06T01:53:17;13.80;99.90
11304;DHT22;5707;49.588;12.148;2023-08-06T01:55:48;13.80;99.90
11304;DHT22;5707;49.588;12.148;2023-08-06T01:58:13;13.70;99.90
11304;DHT22;5707;49.588;12.148;2023-08-06T02:00:40;13.70;99.90
11304;DHT22;5707;49.588;12.148;2023-08-06T02:03:05;13.70;99.90
11304;DHT22;5707;49.588;12.148;2023-08-06T02:05:31;13.70;99.90
11304;DHT22;5707;49.588;12.148;2023-08-06T02:07:56;13.70;99.90
11304;DHT22;5707;49.588;12.148;2023-08-06T02:10:22;13.70;99.90
11304;DHT22;5707;49.588;12.148;2023-08-06T02:12:48;13.70;99.90
11304;DHT22;5707;49.588;12.148;2023-08-06T02:15:13;13.70;99.90
11304;DHT22;5707;49.588;12.148;2023-08-06T02:17:39;13.70;99.90
11304;DHT22;5707;49.588;12.148;2023-08-06T02:20:05;13.60;99.90
11304;DHT22;5707;49.588;12.148;2023-08-06T02:22:30;13.70;99.90
11304;DHT22;5707;49.588;12.148;2023-08-06T02:24:56;13.60;99.90
11304;DHT22;5707;49.588;12.148;2023-08-06T02:27:22;13.60;99.90
11304;DHT22;5707;49.588;12.148;2023-08-06T02:29:47;13.60;99.90
11304;DHT22;5707;49.588;12.148;2023-08-06T02:32:13;13.60;99.90
11304;DHT22;5707;49.588;12.148;2023-08-06T02:34:38;13.50;99.90
11304;DHT22;5707;49.588;12.148;2023-08-06T02:37:04;13.50;99.90
11304;DHT22;5707;49.588;12.148;2023-08-06T02:39:29;13.50;99.90
11304;DHT22;5707;49.588;12.148;2023-08-06T02:41:55;13.60;99.90
11304;DHT22;5707;49.588;12.148;2023-08-06T02:44:20;13.60;99.90
11304;DHT22;5707;49.588;12.148;2023-08-06T02:46:46;13.60;99.90
11304;DHT22;5707;49.588;12.148;2023-08-06T02:49:12;13.50;99.90
11304;DHT22;5707;49.588;12.148;2023-08-06T02:51:37;13.50;99.90
11304;DHT22;5707;49.588;12.148;2023-08-06T02:54:03;13.50;99.90
11304;DHT22;5707;49.588;12.148;2023-08-06T02:56:28;13.50;99.90
11304;DHT22;5707;49.588;12.148;2023-08-06T02:58:54;13.50;99.90
11304;DHT22;5707;49.588;12.148;2023-08-06T03:01:19;13.50;99.90
11304;DHT22;5707;49.588;12.148;2023-08-06T03:03:45;13.50;99.90
11304;DHT22;5707;49.588;12.148;2023-08-06T03:06:10;13.50;99.90
11304;DHT22;5707;49.588;12.148;2023-08-06T03:08:36;13.50;99.90
11304;DHT22;5707;49.588;12.148;2023-08-06T03:11:01;13.50;99.90
11304;DHT22;5707;49.588;12.148;2023-08-06T03:13:27;13.50;99.90
11304;DHT22;5707;49.588;12.148;2023-08-06T03:15:57;13.60;99.90
11304;DHT22;5707;49.588;12.148;2023-08-06T03:18:23;13.50;99.90
11304;DHT22;5707;49.588;12.148;2023-08-06T03:20:51;13.50;99.90
11304;DHT22;5707;49.588;12.148;2023-08-06T03:23:17;13.50;99.90
11304;DHT22;5707;49.588;12.148;2023-08-06T03:25:43;13.50;99.90
11304;DHT22;5707;49.588;12.148;2023-08-06T03:28:08;13.50;99.90
11304;DHT22;5707;49.588;12.148;2023-08-06T03:30:34;13.50;99.90
11304;DHT22;5707;49.588;12.148;2023-08-06T03:33:00;13.50;99.90
11304;DHT22;5707;49.588;12.148;2023-08-06T03:35:25;13.50;99.90
11304;DHT22;5707;49.588;12.148;2023-08-06T03:37:51;13.50;99.90
11304;DHT22;5707;49.588;12.148;2023-08-06T03:40:16;13.50;99.90
11304;DHT22;5707;49.588;12.148;2023-08-06T03:42:42;13.50;99.90
11304;DHT22;5707;49.588;12.148;2023-08-06T03:45:08;13.50;99.90
11304;DHT22;5707;49.588;12.148;2023-08-06T03:47:34;13.50;99.90
11304;DHT22;5707;49.588;12.148;2023-08-06T03:49:59;13.50;99.90
11304;DHT22;5707;49.588;12.148;2023-08-06T03:52:25;13.50;99.90
11304;DHT22;5707;49.588;12.148;2023-08-06T03:54:51;13.50;99.90
11304;DHT22;5707;49.588;12.148;2023-08-06T03:57:16;13.50;99.90
11304;DHT22;5707;49.588;12.148;2023-08-06T03:59:42;13.50;99.90
11304;DHT22;5707;49.588;12.148;2023-08-06T04:02:07;13.40;99.90
11304;DHT22;5707;49.588;12.148;2023-08-06T04:04:33;13.40;99.90
11304;DHT22;5707;49.588;12.148;2023-08-06T04:06:58;13.50;99.90
11304;DHT22;5707;49.588;12.148;2023-08-06T04:09:24;13.40;99.90
11304;DHT22;5707;49.588;12.148;2023-08-06T04:11:50;13.40;99.90
11304;DHT22;5707;49.588;12.148;2023-08-06T04:14:15;13.40;99.90
11304;DHT22;5707;49.588;12.148;2023-08-06T04:16:41;13.40;99.90
11304;DHT22;5707;49.588;12.148;2023-08-06T04:19:06;13.40;99.90
11304;DHT22;5707;49.588;12.148;2023-08-06T04:21:32;13.40;99.90
11304;DHT22;5707;49.588;12.148;2023-08-06T04:23:57;13.40;99.90
11304;DHT22;5707;49.588;12.148;2023-08-06T04:26:23;13.40;99.90
11304;DHT22;5707;49.588;12.148;2023-08-06T04:28:48;13.40;99.90
11304;DHT22;5707;49.588;12.148;2023-08-06T04:31:14;13.40;99.90
11304;DHT22;5707;49.588;12.148;2023-08-06T04:33:40;13.40;99.90
11304;DHT22;5707;49.588;12.148;2023-08-06T04:36:06;13.40;99.90
11304;DHT22;5707;49.588;12.148;2023-08-06T04:38:32;13.40;99.90
11304;DHT22;5707;49.588;12.148;2023-08-06T04:40:58;13.40;99.90
11304;DHT22;5707;49.588;12.148;2023-08-06T04:43:23;13.40;99.90
11304;DHT22;5707;49.588;12.148;2023-08-06T04:45:50;13.40;99.90
11304;DHT22;5707;49.588;12.148;2023-08-06T04:48:16;13.40;99.90
11304;DHT22;5707;49.588;12.148;2023-08-06T04:50:46;13.40;99.90
11304;DHT22;5707;49.588;12.148;2023-08-06T04:53:12;13.50;99.90
11304;DHT22;5707;49.588;12.148;2023-08-06T04:55:38;13.50;99.90
11304;DHT22;5707;49.588;12.148;2023-08-06T04:58:03;13.60;99.90
11304;DHT22;5707;49.588;12.148;2023-08-06T05:00:29;13.60;99.90
11304;DHT22;5707;49.588;12.148;2023-08-06T05:02:54;13.60;99.90
11304;DHT22;5707;49.588;12.148;2023-08-06T05:05:20;13.70;99.90
11304;DHT22;5707;49.588;12.148;2023-08-06T05:07:49;13.80;99.90
11304;DHT22;5707;49.588;12.148;2023-08-06T05:10:15;13.80;99.90
11304;DHT22;5707;49.588;12.148;2023-08-06T05:12:41;13.90;99.90
11304;DHT22;5707;49.588;12.148;2023-08-06T05:15:07;13.90;99.90
11304;DHT22;5707;49.588;12.148;2023-08-06T05:17:32;13.90;99.90
11304;DHT22;5707;49.588;12.148;2023-08-06T05:19:59;13.90;99.90
11304;DHT22;5707;49.588;12.148;2023-08-06T05:22:25;14.00;99.90
11304;DHT22;5707;49.588;12.148;2023-08-06T05:24:50;14.10;99.90
11304;DHT22;5707;49.588;12.148;2023-08-06T05:27:16;14.20;99.90
11304;DHT22;5707;49.588;12.148;2023-08-06T05:29:44;14.30;99.90
11304;DHT22;5707;49.588;12.148;2023-08-06T05:32:10;14.40;99.90
11304;DHT22;5707;49.588;12.148;2023-08-06T05:34:35;14.50;99.90
11304;DHT22;5707;49.588;12.148;2023-08-06T05:37:01;14.60;99.90
11304;DHT22;5707;49.588;12.148;2023-08-06T05:39:27;14.60;99.90
11304;DHT22;5707;49.588;12.148;2023-08-06T05:41:52;14.70;99.90
11304;DHT22;5707;49.588;12.148;2023-08-06T05:44:18;14.90;99.90
11304;DHT22;5707;49.588;12.148;2023-08-06T05:46:43;15.00;99.90
11304;DHT22;5707;49.588;12.148;2023-08-06T05:49:09;15.20;99.90
11304;DHT22;5707;49.588;12.148;2023-08-06T05:51:34;15.50;99.90
11304;DHT22;5707;49.588;12.148;2023-08-06T05:54:00;15.70;99.90
11304;DHT22;5707;49.588;12.148;2023-08-06T05:56:25;15.80;99.90
11304;DHT22;5707;49.588;12.148;2023-08-06T05:58:51;16.00;99.90
11304;DHT22;5707;49.588;12.148;2023-08-06T06:01:18;16.00;99.90
11304;DHT22;5707;49.588;12.148;2023-08-06T06:03:44;16.10;99.90
11304;DHT22;5707;49.588;12.148;2023-08-06T06:06:09;16.30;99.90
11304;DHT22;5707;49.588;12.148;2023-08-06T06:08:35;16.40;99.90
11304;DHT22;5707;49.588;12.148;2023-08-06T06:11:00;16.60;99.90
11304;DHT22;5707;49.588;12.148;2023-08-06T06:13:26;16.90;99.90
11304;DHT22;5707;49.588;12.148;2023-08-06T06:15:54;17.20;99.90
11304;DHT22;5707;49.588;12.148;2023-08-06T06:18:21;17.40;99.90
11304;DHT22;5707;49.588;12.148;2023-08-06T06:20:47;17.70;99.90
11304;DHT22;5707;49.588;12.148;2023-08-06T06:23:12;17.90;99.90
11304;DHT22;5707;49.588;12.148;2023-08-06T06:25:51;18.00;99.90
11304;DHT22;5707;49.588;12.148;2023-08-06T06:28:21;18.30;99.90
11304;DHT22;5707;49.588;12.148;2023-08-06T06:30:47;18.40;99.90
11304;DHT22;5707;49.588;12.148;2023-08-06T06:33:13;18.50;99.90
11304;DHT22;5707;49.588;12.148;2023-08-06T06:35:38;18.70;99.90
11304;DHT22;5707;49.588;12.148;2023-08-06T06:38:04;18.70;99.90
11304;DHT22;5707;49.588;12.148;2023-08-06T06:40:29;18.70;99.90
11304;DHT22;5707;49.588;12.148;2023-08-06T06:42:55;18.80;99.90
11304;DHT22;5707;49.588;12.148;2023-08-06T06:45:20;18.60;99.90
11304;DHT22;5707;49.588;12.148;2023-08-06T06:47:46;18.70;99.90
11304;DHT22;5707;49.588;12.148;2023-08-06T06:50:11;18.70;99.90
11304;DHT22;5707;49.588;12.148;2023-08-06T06:52:37;18.90;99.90
11304;DHT22;5707;49.588;12.148;2023-08-06T06:55:03;19.10;99.90
11304;DHT22;5707;49.588;12.148;2023-08-06T06:57:29;19.20;99.90
11304;DHT22;5707;49.588;12.148;2023-08-06T06:59:54;19.10;99.90
11304;DHT22;5707;49.588;12.148;2023-08-06T07:02:20;19.20;99.90
11304;DHT22;5707;49.588;12.148;2023-08-06T07:04:45;19.20;99.90
11304;DHT22;5707;49.588;12.148;2023-08-06T07:07:11;19.20;99.90
11304;DHT22;5707;49.588;12.148;2023-08-06T07:09:36;19.50;99.90
11304;DHT22;5707;49.588;12.148;2023-08-06T07:12:02;19.60;99.90
11304;DHT22;5707;49.588;12.148;2023-08-06T07:14:28;19.70;99.90
11304;DHT22;5707;49.588;12.148;2023-08-06T07:16:54;19.60;99.90
11304;DHT22;5707;49.588;12.148;2023-08-06T07:19:20;19.60;99.90
11304;DHT22;5707;49.588;12.148;2023-08-06T07:21:45;19.40;99.90
11304;DHT22;5707;49.588;12.148;2023-08-06T07:24:11;19.40;99.90
11304;DHT22;5707;49.588;12.148;2023-08-06T07:26:37;19.30;99.90
11304;DHT22;5707;49.588;12.148;2023-08-06T07:29:03;19.50;99.90
11304;DHT22;5707;49.588;12.148;2023-08-06T07:31:28;19.90;99.90
11304;DHT22;5707;49.588;12.148;2023-08-06T07:33:54;20.20;99.90
11304;DHT22;5707;49.588;12.148;2023-08-06T07:36:19;20.10;99.90
11304;DHT22;5707;49.588;12.148;2023-08-06T07:38:45;20.00;99.90
11304;DHT22;5707;49.588;12.148;2023-08-06T07:41:11;20.00;99.90
11304;DHT22;5707;49.588;12.148;2023-08-06T07:43:36;20.30;99.90
11304;DHT22;5707;49.588;12.148;2023-08-06T07:46:02;20.50;99.90
11304;DHT22;5707;49.588;12.148;2023-08-06T07:48:28;20.60;99.90
11304;DHT22;5707;49.588;12.148;2023-08-06T07:50:54;20.60;99.90
11304;DHT22;5707;49.588;12.148;2023-08-06T07:53:24;20.50;99.90
11304;DHT22;5707;49.588;12.148;2023-08-06T07:55:53;20.40;99.90
11304;DHT22;5707;49.588;12.148;2023-08-06T07:58:19;20.40;99.90
11304;DHT22;5707;49.588;12.148;2023-08-06T08:00:45;20.00;99.90
11304;DHT22;5707;49.588;12.148;2023-08-06T08:03:12;19.60;99.90
11304;DHT22;5707;49.588;12.148;2023-08-06T08:05:38;19.40;99.90
11304;DHT22;5707;49.588;12.148;2023-08-06T08:08:04;19.20;99.90
11304;DHT22;5707;49.588;12.148;2023-08-06T08:10:31;19.40;99.90
11304;DHT22;5707;49.588;12.148;2023-08-06T08:12:56;19.90;99.90
11304;DHT22;5707;49.588;12.148;2023-08-06T08:15:22;20.50;99.90
11304;DHT22;5707;49.588;12.148;2023-08-06T08:17:48;21.10;99.90
11304;DHT22;5707;49.588;12.148;2023-08-06T08:20:14;21.60;99.90
11304;DHT22;5707;49.588;12.148;2023-08-06T08:22:40;21.90;99.90
11304;DHT22;5707;49.588;12.148;2023-08-06T08:25:06;21.90;99.90
11304;DHT22;5707;49.588;12.148;2023-08-06T08:27:31;21.60;99.90
11304;DHT22;5707;49.588;12.148;2023-08-06T08:29:57;21.40;99.90
11304;DHT22;5707;49.588;12.148;2023-08-06T08:32:23;21.10;99.90
11304;DHT22;5707;49.588;12.148;2023-08-06T08:34:49;20.50;99.90
11304;DHT22;5707;49.588;12.148;2023-08-06T08:37:14;19.80;99.90
11304;DHT22;5707;49.588;12.148;2023-08-06T08:39:40;19.60;99.90
11304;DHT22;5707;49.588;12.148;2023-08-06T08:42:06;19.70;99.90
11304;DHT22;5707;49.588;12.148;2023-08-06T08:44:33;19.90;99.90
11304;DHT22;5707;49.588;12.148;2023-08-06T08:46:59;20.20;99.90
11304;DHT22;5707;49.588;12.148;2023-08-06T08:49:26;20.30;99.90
11304;DHT22;5707;49.588;12.148;2023-08-06T08:51:53;20.70;99.90
11304;DHT22;5707;49.588;12.148;2023-08-06T08:54:20;20.70;99.90
11304;DHT22;5707;49.588;12.148;2023-08-06T08:56:48;20.70;99.90
11304;DHT22;5707;49.588;12.148;2023-08-06T08:59:13;20.80;99.90
11304;DHT22;5707;49.588;12.148;2023-08-06T09:01:40;20.80;99.90
11304;DHT22;5707;49.588;12.148;2023-08-06T09:04:07;21.00;99.90
11304;DHT22;5707;49.588;12.148;2023-08-06T09:06:37;21.30;99.90
11304;DHT22;5707;49.588;12.148;2023-08-06T09:09:09;22.00;99.90
11304;DHT22;5707;49.588;12.148;2023-08-06T09:11:43;22.30;99.90
11304;DHT22;5707;49.588;12.148;2023-08-06T09:14:09;22.60;99.90
11304;DHT22;5707;49.588;12.148;2023-08-06T09:16:36;23.10;99.90
11304;DHT22;5707;49.588;12.148;2023-08-06T09:19:11;23.60;96.20
11304;DHT22;5707;49.588;12.148;2023-08-06T09:21:41;23.70;96.10
11304;DHT22;5707;49.588;12.148;2023-08-06T09:24:14;23.60;97.40
11304;DHT22;5707;49.588;12.148;2023-08-06T09:26:41;23.50;94.60
11304;DHT22;5707;49.588;12.148;2023-08-06T09:29:08;23.30;96.90
11304;DHT22;5707;49.588;12.148;2023-08-06T09:31:44;23.20;96.30
11304;DHT22;5707;49.588;12.148;2023-08-06T09:34:23;22.90;96.90
11304;DHT22;5707;49.588;12.148;2023-08-06T09:36:49;22.60;98.30
11304;DHT22;5707;49.588;12.148;2023-08-06T09:39:17;22.10;98.80
11304;DHT22;5707;49.588;12.148;2023-08-06T09:41:43;21.70;99.90
11304;DHT22;5707;49.588;12.148;2023-08-06T09:44:20;21.10;99.90
11304;DHT22;5707;49.588;12.148;2023-08-06T09:46:56;20.50;99.90
11304;DHT22;5707;49.588;12.148;2023-08-06T09:49:26;20.30;99.90
11304;DHT22;5707;49.588;12.148;2023-08-06T09:51:52;20.30;99.90
11304;DHT22;5707;49.588;12.148;2023-08-06T09:54:22;20.50;99.90
11304;DHT22;5707;49.588;12.148;2023-08-06T09:56:48;21.30;99.90
11304;DHT22;5707;49.588;12.148;2023-08-06T09:59:14;21.90;98.30
11304;DHT22;5707;49.588;12.148;2023-08-06T10:01:41;22.20;99.90
11304;DHT22;5707;49.588;12.148;2023-08-06T10:04:07;22.70;97.40
11304;DHT22;5707;49.588;12.148;2023-08-06T10:06:37;23.40;94.30
11304;DHT22;5707;49.588;12.148;2023-08-06T10:09:04;23.70;91.90
11304;DHT22;5707;49.588;12.148;2023-08-06T10:11:30;23.80;93.30
11304;DHT22;5707;49.588;12.148;2023-08-06T10:14:13;24.10;95.60
11304;DHT22;5707;49.588;12.148;2023-08-06T10:16:42;24.10;93.20
11304;DHT22;5707;49.588;12.148;2023-08-06T10:19:10;24.10;84.90
11304;DHT22;5707;49.588;12.148;2023-08-06T10:21:39;24.00;79.10
11304;DHT22;5707;49.588;12.148;2023-08-06T10:24:08;24.00;92.20
11304;DHT22;5707;49.588;12.148;2023-08-06T10:26:37;23.00;99.90
11304;DHT22;5707;49.588;12.148;2023-08-06T10:29:35;21.30;99.90
11304;DHT22;5707;49.588;12.148;2023-08-06T10:32:01;20.40;99.90
11304;DHT22;5707;49.588;12.148;2023-08-06T10:34:58;20.40;99.90
11304;DHT22;5707;49.588;12.148;2023-08-06T10:37:35;20.30;99.90
11304;DHT22;5707;49.588;12.148;2023-08-06T10:40:01;20.10;99.90
11304;DHT22;5707;49.588;12.148;2023-08-06T10:42:28;20.30;99.90
11304;DHT22;5707;49.588;12.148;2023-08-06T10:45:19;20.30;99.90
11304;DHT22;5707;49.588;12.148;2023-08-06T10:47:45;20.40;99.90
11304;DHT22;5707;49.588;12.148;2023-08-06T10:50:12;20.60;99.90
11304;DHT22;5707;49.588;12.148;2023-08-06T10:52:39;20.60;99.90
11304;DHT22;5707;49.588;12.148;2023-08-06T10:55:05;20.60;99.90
11304;DHT22;5707;49.588;12.148;2023-08-06T10:57:31;20.60;99.90
11304;DHT22;5707;49.588;12.148;2023-08-06T10:59:56;20.30;99.90
11304;DHT22;5707;49.588;12.148;2023-08-06T11:02:22;20.20;99.90
11304;DHT22;5707;49.588;12.148;2023-08-06T11:04:48;20.30;99.90
11304;DHT22;5707;49.588;12.148;2023-08-06T11:07:14;20.30;99.90
11304;DHT22;5707;49.588;12.148;2023-08-06T11:09:39;20.70;99.90
11304;DHT22;5707;49.588;12.148;2023-08-06T11:12:18;20.90;99.90
11304;DHT22;5707;49.588;12.148;2023-08-06T11:14:50;21.10;99.90
11304;DHT22;5707;49.588;12.148;2023-08-06T11:17:15;20.80;99.90
11304;DHT22;5707;49.588;12.148;2023-08-06T11:19:41;20.70;99.90
11304;DHT22;5707;49.588;12.148;2023-08-06T11:22:07;20.60;99.90
11304;DHT22;5707;49.588;12.148;2023-08-06T11:24:32;20.30;99.90
11304;DHT22;5707;49.588;12.148;2023-08-06T11:26:58;20.40;99.90
11304;DHT22;5707;49.588;12.148;2023-08-06T11:29:23;20.90;99.90
11304;DHT22;5707;49.588;12.148;2023-08-06T11:31:49;21.60;99.90
11304;DHT22;5707;49.588;12.148;2023-08-06T11:34:15;22.20;99.90
11304;DHT22;5707;49.588;12.148;2023-08-06T11:36:42;22.40;99.30
11304;DHT22;5707;49.588;12.148;2023-08-06T11:39:08;22.30;99.90
11304;DHT22;5707;49.588;12.148;2023-08-06T11:41:35;22.00;99.90
11304;DHT22;5707;49.588;12.148;2023-08-06T11:44:03;21.70;99.80
11304;DHT22;5707;49.588;12.148;2023-08-06T11:46:29;21.80;99.70
11304;DHT22;5707;49.588;12.148;2023-08-06T11:48:56;22.20;98.90
11304;DHT22;5707;49.588;12.148;2023-08-06T11:51:28;22.50;99.30
11304;DHT22;5707;49.588;12.148;2023-08-06T11:53:57;22.50;97.10
11304;DHT22;5707;49.588;12.148;2023-08-06T11:56:25;22.50;99.90
11304;DHT22;5707;49.588;12.148;2023-08-06T11:58:51;22.40;98.70
11304;DHT22;5707;49.588;12.148;2023-08-06T12:01:18;22.50;98.60
11304;DHT22;5707;49.588;12.148;2023-08-06T12:03:43;22.80;96.20
11304;DHT22;5707;49.588;12.148;2023-08-06T12:06:09;22.50;98.10
11304;DHT22;5707;49.588;12.148;2023-08-06T12:08:35;22.20;98.10
11304;DHT22;5707;49.588;12.148;2023-08-06T12:11:00;21.90;99.10
11304;DHT22;5707;49.588;12.148;2023-08-06T12:13:26;21.80;97.20
11304;DHT22;5707;49.588;12.148;2023-08-06T12:15:53;21.60;96.80
11304;DHT22;5707;49.588;12.148;2023-08-06T12:18:19;22.20;98.20
11304;DHT22;5707;49.588;12.148;2023-08-06T12:20:45;22.80;96.00
11304;DHT22;5707;49.588;12.148;2023-08-06T12:23:10;23.40;91.50
11304;DHT22;5707;49.588;12.148;2023-08-06T12:25:40;23.80;90.20
11304;DHT22;5707;49.588;12.148;2023-08-06T12:28:06;24.30;82.70
11304;DHT22;5707;49.588;12.148;2023-08-06T12:30:33;23.90;86.60
11304;DHT22;5707;49.588;12.148;2023-08-06T12:32:58;22.90;93.20
11304;DHT22;5707;49.588;12.148;2023-08-06T12:35:24;22.00;94.80
11304;DHT22;5707;49.588;12.148;2023-08-06T12:37:51;21.50;99.90
11304;DHT22;5707;49.588;12.148;2023-08-06T12:40:20;20.90;99.90
11304;DHT22;5707;49.588;12.148;2023-08-06T12:42:45;20.90;99.90
11304;DHT22;5707;49.588;12.148;2023-08-06T12:45:11;21.00;99.90
11304;DHT22;5707;49.588;12.148;2023-08-06T12:47:37;21.00;99.90
11304;DHT22;5707;49.588;12.148;2023-08-06T12:50:03;20.80;99.90
11304;DHT22;5707;49.588;12.148;2023-08-06T12:52:29;20.20;99.90
11304;DHT22;5707;49.588;12.148;2023-08-06T12:54:54;19.90;99.90
11304;DHT22;5707;49.588;12.148;2023-08-06T12:57:20;19.90;99.90
11304;DHT22;5707;49.588;12.148;2023-08-06T12:59:45;20.10;99.90
11304;DHT22;5707;49.588;12.148;2023-08-06T13:02:11;21.00;99.90
11304;DHT22;5707;49.588;12.148;2023-08-06T13:04:37;22.00;99.90
11304;DHT22;5707;49.588;12.148;2023-08-06T13:07:02;22.60;97.50
11304;DHT22;5707;49.588;12.148;2023-08-06T13:09:28;22.20;95.70
11304;DHT22;5707;49.588;12.148;2023-08-06T13:11:53;21.60;99.90
11304;DHT22;5707;49.588;12.148;2023-08-06T13:14:19;21.10;99.90
11304;DHT22;5707;49.588;12.148;2023-08-06T13:16:45;20.70;99.90
11304;DHT22;5707;49.588;12.148;2023-08-06T13:19:11;20.90;99.90
11304;DHT22;5707;49.588;12.148;2023-08-06T13:24:07;22.00;99.90
11304;DHT22;5707;49.588;12.148;2023-08-06T13:26:33;22.40;99.90
11304;DHT22;5707;49.588;12.148;2023-08-06T13:28:59;22.70;99.90
11304;DHT22;5707;49.588;12.148;2023-08-06T13:31:25;22.90;99.90
11304;DHT22;5707;49.588;12.148;2023-08-06T13:33:51;22.80;98.70
11304;DHT22;5707;49.588;12.148;2023-08-06T13:36:17;22.40;99.90
11304;DHT22;5707;49.588;12.148;2023-08-06T13:38:43;22.20;99.90
11304;DHT22;5707;49.588;12.148;2023-08-06T13:41:08;22.20;99.90
11304;DHT22;5707;49.588;12.148;2023-08-06T13:43:34;22.30;99.90
11304;DHT22;5707;49.588;12.148;2023-08-06T13:45:59;22.20;99.90
11304;DHT22;5707;49.588;12.148;2023-08-06T13:48:25;22.40;99.90
11304;DHT22;5707;49.588;12.148;2023-08-06T13:50:52;21.90;99.90
11304;DHT22;5707;49.588;12.148;2023-08-06T13:53:17;21.50;99.90
11304;DHT22;5707;49.588;12.148;2023-08-06T13:55:43;21.10;99.70
11304;DHT22;5707;49.588;12.148;2023-08-06T13:58:08;20.60;99.40
11304;DHT22;5707;49.588;12.148;2023-08-06T14:00:35;20.20;99.90
11304;DHT22;5707;49.588;12.148;2023-08-06T14:03:01;20.10;99.90
11304;DHT22;5707;49.588;12.148;2023-08-06T14:05:26;19.80;99.90
11304;DHT22;5707;49.588;12.148;2023-08-06T14:07:52;19.80;99.90
11304;DHT22;5707;49.588;12.148;2023-08-06T14:10:18;19.70;99.90
11304;DHT22;5707;49.588;12.148;2023-08-06T14:12:43;19.90;99.90
11304;DHT22;5707;49.588;12.148;2023-08-06T14:15:10;20.10;99.90
11304;DHT22;5707;49.588;12.148;2023-08-06T14:17:36;20.50;99.90
11304;DHT22;5707;49.588;12.148;2023-08-06T14:20:01;20.80;99.90
11304;DHT22;5707;49.588;12.148;2023-08-06T14:22:30;20.70;99.90
11304;DHT22;5707;49.588;12.148;2023-08-06T14:24:57;20.60;99.90
11304;DHT22;5707;49.588;12.148;2023-08-06T14:27:23;20.50;99.90
11304;DHT22;5707;49.588;12.148;2023-08-06T14:29:48;20.60;99.90
11304;DHT22;5707;49.588;12.148;2023-08-06T14:32:14;21.20;99.90
11304;DHT22;5707;49.588;12.148;2023-08-06T14:34:43;21.70;99.90
11304;DHT22;5707;49.588;12.148;2023-08-06T14:37:09;21.70;99.90
11304;DHT22;5707;49.588;12.148;2023-08-06T14:39:34;21.20;99.90
11304;DHT22;5707;49.588;12.148;2023-08-06T14:42:00;20.70;99.90
11304;DHT22;5707;49.588;12.148;2023-08-06T14:44:25;20.40;99.90
11304;DHT22;5707;49.588;12.148;2023-08-06T14:46:51;19.80;99.90
11304;DHT22;5707;49.588;12.148;2023-08-06T14:49:16;19.30;99.90
11304;DHT22;5707;49.588;12.148;2023-08-06T14:51:42;18.80;99.90
11304;DHT22;5707;49.588;12.148;2023-08-06T14:54:08;18.20;99.90
11304;DHT22;5707;49.588;12.148;2023-08-06T14:56:33;17.80;99.90
11304;DHT22;5707;49.588;12.148;2023-08-06T14:58:59;17.60;99.90
11304;DHT22;5707;49.588;12.148;2023-08-06T15:01:24;17.70;99.90
11304;DHT22;5707;49.588;12.148;2023-08-06T15:03:50;17.80;99.90
11304;DHT22;5707;49.588;12.148;2023-08-06T15:06:15;18.00;99.90
11304;DHT22;5707;49.588;12.148;2023-08-06T15:08:41;17.80;99.90
11304;DHT22;5707;49.588;12.148;2023-08-06T15:11:09;17.70;99.90
11304;DHT22;5707;49.588;12.148;2023-08-06T15:13:35;17.70;99.90
11304;DHT22;5707;49.588;12.148;2023-08-06T15:16:01;17.80;99.90
11304;DHT22;5707;49.588;12.148;2023-08-06T15:18:27;17.70;99.90
11304;DHT22;5707;49.588;12.148;2023-08-06T15:20:52;17.80;99.90
11304;DHT22;5707;49.588;12.148;2023-08-06T15:23:18;18.00;99.90
11304;DHT22;5707;49.588;12.148;2023-08-06T15:25:43;18.20;99.90
11304;DHT22;5707;49.588;12.148;2023-08-06T15:28:09;18.80;99.90
11304;DHT22;5707;49.588;12.148;2023-08-06T15:30:34;19.40;99.90
11304;DHT22;5707;49.588;12.148;2023-08-06T15:33:01;19.80;99.90
11304;DHT22;5707;49.588;12.148;2023-08-06T15:35:27;19.50;99.90
11304;DHT22;5707;49.588;12.148;2023-08-06T15:37:53;19.20;99.90